sensor_id;sensor_type;location;lat;lon;timestamp;P1;durP1;ratioP1;P2;durP2;ratioP2
19199;SDS011;9732;52.498;5.408;2022-12-18T00:00:02;49.83;;;16.93;;
19199;SDS011;9732;52.498;5.408;2022-12-18T00:02:31;50.13;;;17.30;;
19199;SDS011;9732;52.498;5.408;2022-12-18T00:05:00;58.23;;;17.63;;
19199;SDS011;9732;52.498;5.408;2022-12-18T00:07:28;53.93;;;17.27;;
19199;SDS011;9732;52.498;5.408;2022-12-18T00:09:55;53.53;;;17.63;;
19199;SDS011;9732;52.498;5.408;2022-12-18T00:12:22;51.63;;;18.30;;
19199;SDS011;9732;52.498;5.408;2022-12-18T00:14:50;62.07;;;20.67;;
19199;SDS011;9732;52.498;5.408;2022-12-18T00:17:18;59.30;;;18.17;;
19199;SDS011;9732;52.498;5.408;2022-12-18T00:19:45;49.70;;;17.77;;
19199;SDS011;9732;52.498;5.408;2022-12-18T00:22:12;56.27;;;19.10;;
19199;SDS011;9732;52.498;5.408;2022-12-18T00:24:42;52.23;;;16.63;;
19199;SDS011;9732;52.498;5.408;2022-12-18T00:27:09;54.30;;;18.13;;
19199;SDS011;9732;52.498;5.408;2022-12-18T00:29:37;49.13;;;16.33;;
19199;SDS011;9732;52.498;5.408;2022-12-18T00:32:04;61.33;;;17.57;;
19199;SDS011;9732;52.498;5.408;2022-12-18T00:34:31;57.50;;;17.53;;
19199;SDS011;9732;52.498;5.408;2022-12-18T00:36:59;45.43;;;15.90;;
19199;SDS011;9732;52.498;5.408;2022-12-18T00:39:26;53.23;;;19.53;;
19199;SDS011;9732;52.498;5.408;2022-12-18T00:42:02;56.10;;;17.87;;
19199;SDS011;9732;52.498;5.408;2022-12-18T00:44:46;40.53;;;15.50;;
19199;SDS011;9732;52.498;5.408;2022-12-18T00:47:14;56.50;;;16.57;;
19199;SDS011;9732;52.498;5.408;2022-12-18T00:49:43;51.13;;;17.60;;
19199;SDS011;9732;52.498;5.408;2022-12-18T00:52:10;62.83;;;18.33;;
19199;SDS011;9732;52.498;5.408;2022-12-18T00:54:39;44.93;;;17.30;;
19199;SDS011;9732;52.498;5.408;2022-12-18T00:57:07;52.73;;;16.30;;
19199;SDS011;9732;52.498;5.408;2022-12-18T00:59:34;54.03;;;18.57;;
19199;SDS011;9732;52.498;5.408;2022-12-18T01:02:03;48.03;;;17.47;;
19199;SDS011;9732;52.498;5.408;2022-12-18T01:04:30;46.77;;;17.90;;
19199;SDS011;9732;52.498;5.408;2022-12-18T01:07:00;45.13;;;17.40;;
19199;SDS011;9732;52.498;5.408;2022-12-18T01:09:27;41.20;;;16.17;;
19199;SDS011;9732;52.498;5.408;2022-12-18T01:11:54;54.73;;;17.53;;
19199;SDS011;9732;52.498;5.408;2022-12-18T01:14:23;53.37;;;16.80;;
19199;SDS011;9732;52.498;5.408;2022-12-18T01:16:50;47.63;;;17.20;;
19199;SDS011;9732;52.498;5.408;2022-12-18T01:19:18;47.17;;;15.93;;
19199;SDS011;9732;52.498;5.408;2022-12-18T01:21:46;43.43;;;16.37;;
19199;SDS011;9732;52.498;5.408;2022-12-18T01:24:13;53.33;;;15.93;;
19199;SDS011;9732;52.498;5.408;2022-12-18T01:26:42;41.77;;;14.60;;
19199;SDS011;9732;52.498;5.408;2022-12-18T01:29:08;45.37;;;16.67;;
19199;SDS011;9732;52.498;5.408;2022-12-18T01:31:38;43.33;;;17.00;;
19199;SDS011;9732;52.498;5.408;2022-12-18T01:34:06;43.87;;;14.20;;
19199;SDS011;9732;52.498;5.408;2022-12-18T01:36:33;37.83;;;14.53;;
19199;SDS011;9732;52.498;5.408;2022-12-18T01:39:04;43.03;;;15.73;;
19199;SDS011;9732;52.498;5.408;2022-12-18T01:41:33;53.80;;;16.43;;
19199;SDS011;9732;52.498;5.408;2022-12-18T01:47:23;42.73;;;16.97;;
19199;SDS011;9732;52.498;5.408;2022-12-18T01:49:53;41.17;;;15.00;;
19199;SDS011;9732;52.498;5.408;2022-12-18T01:52:24;45.20;;;16.83;;
19199;SDS011;9732;52.498;5.408;2022-12-18T01:54:55;45.60;;;16.43;;
19199;SDS011;9732;52.498;5.408;2022-12-18T01:57:24;46.53;;;18.00;;
19199;SDS011;9732;52.498;5.408;2022-12-18T01:59:57;43.10;;;15.33;;
19199;SDS011;9732;52.498;5.408;2022-12-18T02:02:29;50.80;;;17.60;;
19199;SDS011;9732;52.498;5.408;2022-12-18T02:04:58;38.50;;;16.30;;
19199;SDS011;9732;52.498;5.408;2022-12-18T02:07:28;45.47;;;17.40;;
19199;SDS011;9732;52.498;5.408;2022-12-18T02:10:06;55.53;;;16.60;;
19199;SDS011;9732;52.498;5.408;2022-12-18T02:12:42;46.63;;;15.37;;
19199;SDS011;9732;52.498;5.408;2022-12-18T02:15:16;41.37;;;17.23;;
19199;SDS011;9732;52.498;5.408;2022-12-18T02:17:52;49.60;;;16.83;;
19199;SDS011;9732;52.498;5.408;2022-12-18T02:20:23;47.20;;;15.53;;
19199;SDS011;9732;52.498;5.408;2022-12-18T02:23:04;34.77;;;15.57;;
19199;SDS011;9732;52.498;5.408;2022-12-18T02:28:40;50.67;;;17.63;;
19199;SDS011;9732;52.498;5.408;2022-12-18T02:31:13;50.63;;;16.33;;
19199;SDS011;9732;52.498;5.408;2022-12-18T02:33:46;54.07;;;15.83;;
19199;SDS011;9732;52.498;5.408;2022-12-18T02:36:17;0.80;;;0.80;;
19199;SDS011;9732;52.498;5.408;2022-12-18T02:38:47;2.90;;;1.80;;
19199;SDS011;9732;52.498;5.408;2022-12-18T02:41:19;0.60;;;0.60;;
19199;SDS011;9732;52.498;5.408;2022-12-18T02:43:50;4.43;;;3.03;;
19199;SDS011;9732;52.498;5.408;2022-12-18T02:46:24;51.23;;;17.63;;
19199;SDS011;9732;52.498;5.408;2022-12-18T02:48:59;61.37;;;17.00;;
19199;SDS011;9732;52.498;5.408;2022-12-18T02:51:34;42.00;;;18.00;;
19199;SDS011;9732;52.498;5.408;2022-12-18T02:54:09;44.10;;;18.03;;
19199;SDS011;9732;52.498;5.408;2022-12-18T02:56:47;45.97;;;18.70;;
19199;SDS011;9732;52.498;5.408;2022-12-18T02:59:17;40.73;;;14.97;;
19199;SDS011;9732;52.498;5.408;2022-12-18T03:01:51;54.10;;;18.63;;
19199;SDS011;9732;52.498;5.408;2022-12-18T03:04:25;43.23;;;16.20;;
19199;SDS011;9732;52.498;5.408;2022-12-18T03:06:56;36.63;;;15.00;;
19199;SDS011;9732;52.498;5.408;2022-12-18T03:09:28;54.50;;;17.67;;
19199;SDS011;9732;52.498;5.408;2022-12-18T03:12:02;43.07;;;15.87;;
19199;SDS011;9732;52.498;5.408;2022-12-18T03:14:53;44.43;;;17.43;;
19199;SDS011;9732;52.498;5.408;2022-12-18T03:17:26;48.60;;;16.57;;
19199;SDS011;9732;52.498;5.408;2022-12-18T03:19:58;56.97;;;18.93;;
19199;SDS011;9732;52.498;5.408;2022-12-18T03:22:30;39.20;;;15.60;;
19199;SDS011;9732;52.498;5.408;2022-12-18T03:25:03;42.67;;;16.07;;
19199;SDS011;9732;52.498;5.408;2022-12-18T03:27:39;41.10;;;15.23;;
19199;SDS011;9732;52.498;5.408;2022-12-18T03:30:12;42.13;;;14.47;;
19199;SDS011;9732;52.498;5.408;2022-12-18T03:32:42;42.43;;;16.10;;
19199;SDS011;9732;52.498;5.408;2022-12-18T03:35:14;53.83;;;16.90;;
19199;SDS011;9732;52.498;5.408;2022-12-18T03:37:48;41.80;;;16.67;;
19199;SDS011;9732;52.498;5.408;2022-12-18T03:40:15;34.97;;;13.80;;
19199;SDS011;9732;52.498;5.408;2022-12-18T03:42:46;54.70;;;17.30;;
19199;SDS011;9732;52.498;5.408;2022-12-18T03:45:19;63.50;;;19.10;;
19199;SDS011;9732;52.498;5.408;2022-12-18T03:47:53;43.67;;;14.90;;
19199;SDS011;9732;52.498;5.408;2022-12-18T03:50:30;44.37;;;15.73;;
19199;SDS011;9732;52.498;5.408;2022-12-18T03:53:06;44.53;;;18.73;;
19199;SDS011;9732;52.498;5.408;2022-12-18T03:55:40;50.97;;;16.43;;
19199;SDS011;9732;52.498;5.408;2022-12-18T03:58:10;42.40;;;16.27;;
19199;SDS011;9732;52.498;5.408;2022-12-18T04:00:43;51.03;;;16.93;;
19199;SDS011;9732;52.498;5.408;2022-12-18T04:03:11;39.50;;;15.40;;
19199;SDS011;9732;52.498;5.408;2022-12-18T04:05:41;41.33;;;16.20;;
19199;SDS011;9732;52.498;5.408;2022-12-18T04:08:09;36.77;;;14.77;;
19199;SDS011;9732;52.498;5.408;2022-12-18T04:10:37;63.37;;;16.23;;
19199;SDS011;9732;52.498;5.408;2022-12-18T04:13:04;37.63;;;13.83;;
19199;SDS011;9732;52.498;5.408;2022-12-18T04:15:33;38.70;;;16.30;;
19199;SDS011;9732;52.498;5.408;2022-12-18T04:18:02;39.40;;;14.23;;
19199;SDS011;9732;52.498;5.408;2022-12-18T04:20:30;36.93;;;14.87;;
19199;SDS011;9732;52.498;5.408;2022-12-18T04:22:59;30.77;;;13.73;;
19199;SDS011;9732;52.498;5.408;2022-12-18T04:25:27;37.77;;;13.60;;
19199;SDS011;9732;52.498;5.408;2022-12-18T04:27:55;45.10;;;14.10;;
19199;SDS011;9732;52.498;5.408;2022-12-18T04:30:22;44.40;;;16.50;;
19199;SDS011;9732;52.498;5.408;2022-12-18T04:32:52;35.47;;;14.60;;
19199;SDS011;9732;52.498;5.408;2022-12-18T04:35:19;36.00;;;14.33;;
19199;SDS011;9732;52.498;5.408;2022-12-18T04:37:47;38.50;;;14.93;;
19199;SDS011;9732;52.498;5.408;2022-12-18T04:40:15;44.40;;;14.00;;
19199;SDS011;9732;52.498;5.408;2022-12-18T04:42:42;57.63;;;17.63;;
19199;SDS011;9732;52.498;5.408;2022-12-18T04:45:10;43.40;;;16.73;;
19199;SDS011;9732;52.498;5.408;2022-12-18T04:47:36;48.60;;;14.87;;
19199;SDS011;9732;52.498;5.408;2022-12-18T04:50:06;50.83;;;17.87;;
19199;SDS011;9732;52.498;5.408;2022-12-18T04:52:36;45.80;;;14.83;;
19199;SDS011;9732;52.498;5.408;2022-12-18T04:55:03;52.77;;;16.03;;
19199;SDS011;9732;52.498;5.408;2022-12-18T04:57:33;43.80;;;16.57;;
19199;SDS011;9732;52.498;5.408;2022-12-18T05:00:00;42.30;;;15.33;;
19199;SDS011;9732;52.498;5.408;2022-12-18T05:02:30;41.77;;;13.43;;
19199;SDS011;9732;52.498;5.408;2022-12-18T05:04:57;31.97;;;13.27;;
19199;SDS011;9732;52.498;5.408;2022-12-18T05:07:26;0.50;;;0.50;;
19199;SDS011;9732;52.498;5.408;2022-12-18T05:09:56;0.60;;;0.60;;
19199;SDS011;9732;52.498;5.408;2022-12-18T05:12:24;0.60;;;0.60;;
19199;SDS011;9732;52.498;5.408;2022-12-18T05:14:52;0.80;;;0.80;;
19199;SDS011;9732;52.498;5.408;2022-12-18T05:17:19;17.37;;;9.77;;
19199;SDS011;9732;52.498;5.408;2022-12-18T05:19:47;19.97;;;8.77;;
19199;SDS011;9732;52.498;5.408;2022-12-18T05:22:14;13.97;;;8.53;;
19199;SDS011;9732;52.498;5.408;2022-12-18T05:24:43;10.23;;;7.60;;
19199;SDS011;9732;52.498;5.408;2022-12-18T05:27:11;39.60;;;10.43;;
19199;SDS011;9732;52.498;5.408;2022-12-18T05:29:38;14.87;;;7.47;;
19199;SDS011;9732;52.498;5.408;2022-12-18T05:32:05;4.90;;;4.00;;
19199;SDS011;9732;52.498;5.408;2022-12-18T05:34:34;10.47;;;6.83;;
19199;SDS011;9732;52.498;5.408;2022-12-18T05:37:01;15.73;;;5.90;;
19199;SDS011;9732;52.498;5.408;2022-12-18T05:39:29;8.43;;;6.13;;
19199;SDS011;9732;52.498;5.408;2022-12-18T05:41:57;24.07;;;10.90;;
19199;SDS011;9732;52.498;5.408;2022-12-18T05:44:24;37.43;;;12.00;;
19199;SDS011;9732;52.498;5.408;2022-12-18T05:46:54;28.33;;;12.03;;
19199;SDS011;9732;52.498;5.408;2022-12-18T05:49:23;25.10;;;12.83;;
19199;SDS011;9732;52.498;5.408;2022-12-18T05:51:51;36.47;;;14.47;;
19199;SDS011;9732;52.498;5.408;2022-12-18T05:54:18;34.37;;;13.53;;
19199;SDS011;9732;52.498;5.408;2022-12-18T05:56:45;39.40;;;14.60;;
19199;SDS011;9732;52.498;5.408;2022-12-18T05:59:16;29.83;;;12.47;;
19199;SDS011;9732;52.498;5.408;2022-12-18T06:01:43;29.67;;;12.93;;
19199;SDS011;9732;52.498;5.408;2022-12-18T06:04:12;28.93;;;12.73;;
19199;SDS011;9732;52.498;5.408;2022-12-18T06:06:39;27.20;;;11.33;;
19199;SDS011;9732;52.498;5.408;2022-12-18T06:09:07;27.03;;;13.00;;
19199;SDS011;9732;52.498;5.408;2022-12-18T06:11:37;35.93;;;14.73;;
19199;SDS011;9732;52.498;5.408;2022-12-18T06:14:05;29.47;;;12.27;;
19199;SDS011;9732;52.498;5.408;2022-12-18T06:16:36;27.87;;;11.30;;
19199;SDS011;9732;52.498;5.408;2022-12-18T06:19:03;24.13;;;10.97;;
19199;SDS011;9732;52.498;5.408;2022-12-18T06:21:33;28.40;;;11.27;;
19199;SDS011;9732;52.498;5.408;2022-12-18T06:24:00;26.90;;;10.43;;
19199;SDS011;9732;52.498;5.408;2022-12-18T06:26:28;30.73;;;12.97;;
19199;SDS011;9732;52.498;5.408;2022-12-18T06:28:56;22.13;;;10.43;;
19199;SDS011;9732;52.498;5.408;2022-12-18T06:31:24;36.17;;;13.40;;
19199;SDS011;9732;52.498;5.408;2022-12-18T06:33:53;21.53;;;10.17;;
19199;SDS011;9732;52.498;5.408;2022-12-18T06:36:21;30.30;;;9.27;;
19199;SDS011;9732;52.498;5.408;2022-12-18T06:38:50;29.60;;;11.30;;
19199;SDS011;9732;52.498;5.408;2022-12-18T06:41:18;27.57;;;12.27;;
19199;SDS011;9732;52.498;5.408;2022-12-18T06:43:47;24.57;;;9.60;;
19199;SDS011;9732;52.498;5.408;2022-12-18T06:46:15;26.63;;;9.33;;
19199;SDS011;9732;52.498;5.408;2022-12-18T06:48:42;25.17;;;11.17;;
19199;SDS011;9732;52.498;5.408;2022-12-18T06:51:17;23.07;;;9.80;;
19199;SDS011;9732;52.498;5.408;2022-12-18T06:53:46;24.47;;;10.63;;
19199;SDS011;9732;52.498;5.408;2022-12-18T06:56:13;25.07;;;11.07;;
19199;SDS011;9732;52.498;5.408;2022-12-18T06:58:42;26.63;;;10.77;;
19199;SDS011;9732;52.498;5.408;2022-12-18T07:01:10;19.67;;;10.33;;
19199;SDS011;9732;52.498;5.408;2022-12-18T07:03:40;22.03;;;9.43;;
19199;SDS011;9732;52.498;5.408;2022-12-18T07:06:12;25.53;;;9.33;;
19199;SDS011;9732;52.498;5.408;2022-12-18T07:08:43;37.57;;;11.77;;
19199;SDS011;9732;52.498;5.408;2022-12-18T07:11:11;23.93;;;10.53;;
19199;SDS011;9732;52.498;5.408;2022-12-18T07:13:39;29.33;;;10.67;;
19199;SDS011;9732;52.498;5.408;2022-12-18T07:16:07;17.53;;;8.13;;
19199;SDS011;9732;52.498;5.408;2022-12-18T07:18:36;25.13;;;9.57;;
19199;SDS011;9732;52.498;5.408;2022-12-18T07:21:03;22.60;;;10.27;;
19199;SDS011;9732;52.498;5.408;2022-12-18T07:23:32;19.17;;;8.93;;
19199;SDS011;9732;52.498;5.408;2022-12-18T07:26:02;21.70;;;9.70;;
19199;SDS011;9732;52.498;5.408;2022-12-18T07:28:32;23.77;;;10.17;;
19199;SDS011;9732;52.498;5.408;2022-12-18T07:31:02;18.60;;;10.03;;
19199;SDS011;9732;52.498;5.408;2022-12-18T07:33:31;32.60;;;11.63;;
19199;SDS011;9732;52.498;5.408;2022-12-18T07:35:59;22.97;;;9.13;;
19199;SDS011;9732;52.498;5.408;2022-12-18T07:38:28;16.83;;;8.63;;
19199;SDS011;9732;52.498;5.408;2022-12-18T07:40:59;23.80;;;10.00;;
19199;SDS011;9732;52.498;5.408;2022-12-18T07:43:30;23.70;;;9.77;;
19199;SDS011;9732;52.498;5.408;2022-12-18T07:45:58;21.80;;;9.83;;
19199;SDS011;9732;52.498;5.408;2022-12-18T07:48:27;15.73;;;8.77;;
19199;SDS011;9732;52.498;5.408;2022-12-18T07:50:57;16.73;;;8.93;;
19199;SDS011;9732;52.498;5.408;2022-12-18T07:53:27;24.70;;;10.57;;
19199;SDS011;9732;52.498;5.408;2022-12-18T07:55:54;20.03;;;10.70;;
19199;SDS011;9732;52.498;5.408;2022-12-18T07:58:24;19.23;;;10.10;;
19199;SDS011;9732;52.498;5.408;2022-12-18T08:00:53;24.70;;;11.10;;
19199;SDS011;9732;52.498;5.408;2022-12-18T08:03:21;30.10;;;9.93;;
19199;SDS011;9732;52.498;5.408;2022-12-18T08:05:48;23.47;;;9.57;;
19199;SDS011;9732;52.498;5.408;2022-12-18T08:08:16;25.30;;;11.13;;
19199;SDS011;9732;52.498;5.408;2022-12-18T08:10:44;16.43;;;9.17;;
19199;SDS011;9732;52.498;5.408;2022-12-18T08:13:14;18.17;;;9.17;;
19199;SDS011;9732;52.498;5.408;2022-12-18T08:15:41;20.37;;;9.53;;
19199;SDS011;9732;52.498;5.408;2022-12-18T08:18:10;18.23;;;9.03;;
19199;SDS011;9732;52.498;5.408;2022-12-18T08:20:39;16.87;;;7.87;;
19199;SDS011;9732;52.498;5.408;2022-12-18T08:23:06;25.20;;;10.53;;
19199;SDS011;9732;52.498;5.408;2022-12-18T08:25:34;19.80;;;8.57;;
19199;SDS011;9732;52.498;5.408;2022-12-18T08:28:01;26.77;;;11.13;;
19199;SDS011;9732;52.498;5.408;2022-12-18T08:30:29;16.97;;;8.97;;
19199;SDS011;9732;52.498;5.408;2022-12-18T08:32:57;19.90;;;9.17;;
19199;SDS011;9732;52.498;5.408;2022-12-18T08:35:27;20.60;;;9.07;;
19199;SDS011;9732;52.498;5.408;2022-12-18T08:37:54;24.37;;;9.23;;
19199;SDS011;9732;52.498;5.408;2022-12-18T08:40:22;26.60;;;12.07;;
19199;SDS011;9732;52.498;5.408;2022-12-18T08:42:50;24.53;;;10.63;;
19199;SDS011;9732;52.498;5.408;2022-12-18T08:45:35;25.60;;;8.97;;
19199;SDS011;9732;52.498;5.408;2022-12-18T08:48:05;24.37;;;9.97;;
19199;SDS011;9732;52.498;5.408;2022-12-18T08:50:34;20.00;;;8.33;;
19199;SDS011;9732;52.498;5.408;2022-12-18T08:53:02;23.33;;;9.70;;
19199;SDS011;9732;52.498;5.408;2022-12-18T08:55:29;20.37;;;9.47;;
19199;SDS011;9732;52.498;5.408;2022-12-18T08:57:57;23.10;;;9.97;;
19199;SDS011;9732;52.498;5.408;2022-12-18T09:00:24;23.83;;;11.57;;
19199;SDS011;9732;52.498;5.408;2022-12-18T09:02:51;23.93;;;10.37;;
19199;SDS011;9732;52.498;5.408;2022-12-18T09:05:18;27.23;;;10.80;;
19199;SDS011;9732;52.498;5.408;2022-12-18T09:07:47;23.90;;;10.43;;
19199;SDS011;9732;52.498;5.408;2022-12-18T09:10:16;27.07;;;9.83;;
19199;SDS011;9732;52.498;5.408;2022-12-18T09:12:44;29.10;;;11.57;;
19199;SDS011;9732;52.498;5.408;2022-12-18T09:15:12;25.33;;;11.00;;
19199;SDS011;9732;52.498;5.408;2022-12-18T09:17:39;20.23;;;9.50;;
19199;SDS011;9732;52.498;5.408;2022-12-18T09:20:06;28.50;;;10.10;;
19199;SDS011;9732;52.498;5.408;2022-12-18T09:22:34;19.13;;;9.50;;
19199;SDS011;9732;52.498;5.408;2022-12-18T09:25:02;16.87;;;8.03;;
19199;SDS011;9732;52.498;5.408;2022-12-18T09:27:32;30.60;;;11.20;;
19199;SDS011;9732;52.498;5.408;2022-12-18T09:29:59;24.17;;;9.17;;
19199;SDS011;9732;52.498;5.408;2022-12-18T09:32:26;17.23;;;8.90;;
19199;SDS011;9732;52.498;5.408;2022-12-18T09:34:53;18.93;;;9.83;;
19199;SDS011;9732;52.498;5.408;2022-12-18T09:37:21;18.00;;;8.30;;
19199;SDS011;9732;52.498;5.408;2022-12-18T09:39:48;20.90;;;9.17;;
19199;SDS011;9732;52.498;5.408;2022-12-18T09:42:19;20.20;;;7.97;;
19199;SDS011;9732;52.498;5.408;2022-12-18T09:44:49;16.70;;;9.03;;
19199;SDS011;9732;52.498;5.408;2022-12-18T09:47:18;22.30;;;10.73;;
19199;SDS011;9732;52.498;5.408;2022-12-18T09:49:49;18.23;;;8.43;;
19199;SDS011;9732;52.498;5.408;2022-12-18T09:52:19;22.33;;;7.13;;
19199;SDS011;9732;52.498;5.408;2022-12-18T09:54:52;15.57;;;7.60;;
19199;SDS011;9732;52.498;5.408;2022-12-18T09:57:25;22.53;;;7.83;;
19199;SDS011;9732;52.498;5.408;2022-12-18T09:59:53;18.70;;;6.93;;
19199;SDS011;9732;52.498;5.408;2022-12-18T10:02:25;12.87;;;7.17;;
19199;SDS011;9732;52.498;5.408;2022-12-18T10:04:55;19.33;;;8.83;;
19199;SDS011;9732;52.498;5.408;2022-12-18T10:07:37;24.67;;;9.10;;
19199;SDS011;9732;52.498;5.408;2022-12-18T10:10:19;22.67;;;8.50;;
19199;SDS011;9732;52.498;5.408;2022-12-18T10:12:54;15.47;;;8.50;;
19199;SDS011;9732;52.498;5.408;2022-12-18T10:15:28;17.80;;;8.30;;
19199;SDS011;9732;52.498;5.408;2022-12-18T10:18:06;25.13;;;9.00;;
19199;SDS011;9732;52.498;5.408;2022-12-18T10:20:41;24.57;;;10.23;;
19199;SDS011;9732;52.498;5.408;2022-12-18T10:23:12;30.40;;;9.43;;
19199;SDS011;9732;52.498;5.408;2022-12-18T10:25:48;22.90;;;10.43;;
19199;SDS011;9732;52.498;5.408;2022-12-18T10:28:21;21.77;;;11.00;;
19199;SDS011;9732;52.498;5.408;2022-12-18T10:30:49;22.57;;;9.03;;
19199;SDS011;9732;52.498;5.408;2022-12-18T10:33:17;17.63;;;8.47;;
19199;SDS011;9732;52.498;5.408;2022-12-18T10:35:47;15.57;;;8.03;;
19199;SDS011;9732;52.498;5.408;2022-12-18T10:38:24;18.43;;;8.83;;
19199;SDS011;9732;52.498;5.408;2022-12-18T10:40:55;21.20;;;10.20;;
19199;SDS011;9732;52.498;5.408;2022-12-18T10:43:25;24.87;;;9.77;;
19199;SDS011;9732;52.498;5.408;2022-12-18T10:46:05;18.07;;;7.27;;
19199;SDS011;9732;52.498;5.408;2022-12-18T10:48:47;21.57;;;9.47;;
19199;SDS011;9732;52.498;5.408;2022-12-18T10:51:22;19.53;;;8.70;;
19199;SDS011;9732;52.498;5.408;2022-12-18T10:53:56;32.07;;;10.00;;
19199;SDS011;9732;52.498;5.408;2022-12-18T10:56:27;24.77;;;10.27;;
19199;SDS011;9732;52.498;5.408;2022-12-18T10:58:58;23.13;;;9.00;;
19199;SDS011;9732;52.498;5.408;2022-12-18T11:01:26;20.57;;;8.83;;
19199;SDS011;9732;52.498;5.408;2022-12-18T11:04:01;18.40;;;8.30;;
19199;SDS011;9732;52.498;5.408;2022-12-18T11:06:34;19.63;;;8.27;;
19199;SDS011;9732;52.498;5.408;2022-12-18T11:09:20;19.50;;;8.80;;
19199;SDS011;9732;52.498;5.408;2022-12-18T11:11:48;17.90;;;7.97;;
19199;SDS011;9732;52.498;5.408;2022-12-18T11:14:20;19.60;;;7.57;;
19199;SDS011;9732;52.498;5.408;2022-12-18T11:16:49;15.77;;;8.17;;
19199;SDS011;9732;52.498;5.408;2022-12-18T11:19:30;17.30;;;8.40;;
19199;SDS011;9732;52.498;5.408;2022-12-18T11:21:59;20.53;;;8.37;;
19199;SDS011;9732;52.498;5.408;2022-12-18T11:24:28;18.40;;;8.27;;
19199;SDS011;9732;52.498;5.408;2022-12-18T11:26:57;18.33;;;7.83;;
19199;SDS011;9732;52.498;5.408;2022-12-18T11:29:30;15.97;;;7.67;;
19199;SDS011;9732;52.498;5.408;2022-12-18T11:34:49;13.47;;;7.30;;
19199;SDS011;9732;52.498;5.408;2022-12-18T11:37:20;17.47;;;8.57;;
19199;SDS011;9732;52.498;5.408;2022-12-18T11:39:49;13.93;;;7.53;;
19199;SDS011;9732;52.498;5.408;2022-12-18T11:42:22;20.87;;;8.40;;
19199;SDS011;9732;52.498;5.408;2022-12-18T11:44:57;16.27;;;7.80;;
19199;SDS011;9732;52.498;5.408;2022-12-18T11:47:28;16.30;;;7.80;;
19199;SDS011;9732;52.498;5.408;2022-12-18T11:50:05;11.63;;;7.10;;
19199;SDS011;9732;52.498;5.408;2022-12-18T11:52:42;20.23;;;8.47;;
19199;SDS011;9732;52.498;5.408;2022-12-18T11:55:11;18.40;;;7.40;;
19199;SDS011;9732;52.498;5.408;2022-12-18T11:57:42;23.00;;;7.40;;
19199;SDS011;9732;52.498;5.408;2022-12-18T12:00:19;22.33;;;8.50;;
19199;SDS011;9732;52.498;5.408;2022-12-18T12:03:03;15.80;;;7.17;;
19199;SDS011;9732;52.498;5.408;2022-12-18T12:05:54;13.57;;;6.83;;
19199;SDS011;9732;52.498;5.408;2022-12-18T12:08:30;16.30;;;7.67;;
19199;SDS011;9732;52.498;5.408;2022-12-18T12:11:05;13.00;;;6.73;;
19199;SDS011;9732;52.498;5.408;2022-12-18T12:13:41;18.57;;;8.27;;
19199;SDS011;9732;52.498;5.408;2022-12-18T12:16:20;24.03;;;9.07;;
19199;SDS011;9732;52.498;5.408;2022-12-18T12:19:02;16.40;;;8.23;;
19199;SDS011;9732;52.498;5.408;2022-12-18T12:21:43;18.20;;;7.77;;
19199;SDS011;9732;52.498;5.408;2022-12-18T12:24:21;16.30;;;8.20;;
19199;SDS011;9732;52.498;5.408;2022-12-18T12:26:57;16.10;;;7.03;;
19199;SDS011;9732;52.498;5.408;2022-12-18T12:29:37;15.00;;;7.67;;
19199;SDS011;9732;52.498;5.408;2022-12-18T12:32:19;17.70;;;7.00;;
19199;SDS011;9732;52.498;5.408;2022-12-18T12:34:57;12.30;;;6.43;;
19199;SDS011;9732;52.498;5.408;2022-12-18T12:37:37;15.60;;;8.20;;
19199;SDS011;9732;52.498;5.408;2022-12-18T12:40:11;19.30;;;8.60;;
19199;SDS011;9732;52.498;5.408;2022-12-18T12:42:44;18.37;;;7.33;;
19199;SDS011;9732;52.498;5.408;2022-12-18T12:45:35;14.33;;;7.60;;
19199;SDS011;9732;52.498;5.408;2022-12-18T12:48:10;15.37;;;6.97;;
19199;SDS011;9732;52.498;5.408;2022-12-18T12:50:45;16.53;;;6.90;;
19199;SDS011;9732;52.498;5.408;2022-12-18T12:53:17;15.07;;;6.57;;
19199;SDS011;9732;52.498;5.408;2022-12-18T12:55:51;13.63;;;7.63;;
19199;SDS011;9732;52.498;5.408;2022-12-18T12:58:21;10.80;;;6.10;;
19199;SDS011;9732;52.498;5.408;2022-12-18T13:00:59;13.93;;;6.87;;
19199;SDS011;9732;52.498;5.408;2022-12-18T13:03:38;17.43;;;7.33;;
19199;SDS011;9732;52.498;5.408;2022-12-18T13:06:16;16.57;;;6.50;;
19199;SDS011;9732;52.498;5.408;2022-12-18T13:08:53;11.10;;;6.03;;
19199;SDS011;9732;52.498;5.408;2022-12-18T13:11:30;15.37;;;7.57;;
19199;SDS011;9732;52.498;5.408;2022-12-18T13:14:26;14.80;;;7.67;;
19199;SDS011;9732;52.498;5.408;2022-12-18T13:19:43;14.40;;;7.20;;
19199;SDS011;9732;52.498;5.408;2022-12-18T13:22:20;15.90;;;7.37;;
19199;SDS011;9732;52.498;5.408;2022-12-18T13:24:48;18.00;;;6.93;;
19199;SDS011;9732;52.498;5.408;2022-12-18T13:36:29;15.93;;;6.70;;
19199;SDS011;9732;52.498;5.408;2022-12-18T13:39:10;19.33;;;8.50;;
19199;SDS011;9732;52.498;5.408;2022-12-18T13:41:47;17.53;;;8.40;;
19199;SDS011;9732;52.498;5.408;2022-12-18T13:44:22;17.83;;;7.90;;
19199;SDS011;9732;52.498;5.408;2022-12-18T13:46:55;17.77;;;6.63;;
19199;SDS011;9732;52.498;5.408;2022-12-18T13:49:23;15.60;;;6.90;;
19199;SDS011;9732;52.498;5.408;2022-12-18T13:51:53;20.13;;;8.10;;
19199;SDS011;9732;52.498;5.408;2022-12-18T13:54:24;15.10;;;7.30;;
19199;SDS011;9732;52.498;5.408;2022-12-18T13:56:54;19.50;;;7.90;;
19199;SDS011;9732;52.498;5.408;2022-12-18T13:59:23;15.07;;;7.03;;
19199;SDS011;9732;52.498;5.408;2022-12-18T14:01:52;17.60;;;8.77;;
19199;SDS011;9732;52.498;5.408;2022-12-18T14:04:22;26.57;;;9.00;;
19199;SDS011;9732;52.498;5.408;2022-12-18T14:06:52;22.37;;;8.17;;
19199;SDS011;9732;52.498;5.408;2022-12-18T14:09:24;17.10;;;8.23;;
19199;SDS011;9732;52.498;5.408;2022-12-18T14:11:53;16.47;;;7.77;;
19199;SDS011;9732;52.498;5.408;2022-12-18T14:14:42;18.93;;;7.23;;
19199;SDS011;9732;52.498;5.408;2022-12-18T14:17:12;18.00;;;7.53;;
19199;SDS011;9732;52.498;5.408;2022-12-18T14:19:43;17.63;;;9.13;;
19199;SDS011;9732;52.498;5.408;2022-12-18T14:22:17;24.80;;;8.47;;
19199;SDS011;9732;52.498;5.408;2022-12-18T14:24:46;18.43;;;7.53;;
19199;SDS011;9732;52.498;5.408;2022-12-18T14:27:21;18.50;;;7.67;;
19199;SDS011;9732;52.498;5.408;2022-12-18T14:29:49;17.67;;;6.93;;
19199;SDS011;9732;52.498;5.408;2022-12-18T14:32:17;21.07;;;7.67;;
19199;SDS011;9732;52.498;5.408;2022-12-18T14:34:45;16.00;;;8.13;;
19199;SDS011;9732;52.498;5.408;2022-12-18T14:37:14;13.53;;;7.03;;
19199;SDS011;9732;52.498;5.408;2022-12-18T14:39:56;16.57;;;8.00;;
19199;SDS011;9732;52.498;5.408;2022-12-18T14:42:25;18.83;;;8.20;;
19199;SDS011;9732;52.498;5.408;2022-12-18T14:47:54;13.63;;;6.77;;
19199;SDS011;9732;52.498;5.408;2022-12-18T14:50:20;14.90;;;6.83;;
19199;SDS011;9732;52.498;5.408;2022-12-18T14:52:49;19.87;;;7.57;;
19199;SDS011;9732;52.498;5.408;2022-12-18T14:55:16;16.87;;;8.23;;
19199;SDS011;9732;52.498;5.408;2022-12-18T14:57:44;16.17;;;7.23;;
19199;SDS011;9732;52.498;5.408;2022-12-18T15:00:15;17.90;;;7.13;;
19199;SDS011;9732;52.498;5.408;2022-12-18T15:02:44;16.43;;;7.80;;
19199;SDS011;9732;52.498;5.408;2022-12-18T15:05:16;18.83;;;8.00;;
19199;SDS011;9732;52.498;5.408;2022-12-18T15:07:45;15.77;;;6.70;;
19199;SDS011;9732;52.498;5.408;2022-12-18T15:10:15;12.30;;;7.87;;
19199;SDS011;9732;52.498;5.408;2022-12-18T15:12:43;17.47;;;7.40;;
19199;SDS011;9732;52.498;5.408;2022-12-18T15:18:13;13.43;;;7.70;;
19199;SDS011;9732;52.498;5.408;2022-12-18T15:20:43;20.70;;;8.37;;
19199;SDS011;9732;52.498;5.408;2022-12-18T15:23:14;16.10;;;8.07;;
19199;SDS011;9732;52.498;5.408;2022-12-18T15:25:43;20.63;;;8.73;;
19199;SDS011;9732;52.498;5.408;2022-12-18T15:28:18;19.67;;;9.60;;